createdAt,value
2019-01-12T00:39:01.379Z,38.40
2019-01-12T00:50:42.804Z,25.87
2019-01-12T00:53:41.319Z,28.97
2019-01-12T01:00:29.761Z,26.80
2019-01-12T06:41:27.079Z,35.60
2019-01-12T06:44:11.232Z,22.63
2019-01-12T07:12:29.959Z,16.70
2019-01-12T07:14:59.682Z,17.57
2019-01-12T07:17:29.935Z,19.40
2019-01-12T07:20:01.354Z,10.70
2019-01-12T07:22:36.836Z,16.67
2019-01-12T07:25:07.815Z,18.60
2019-01-12T07:27:44.642Z,19.40
2019-01-12T07:30:36.576Z,15.20
2019-01-12T07:33:11.047Z,18.87
2019-01-12T07:35:46.462Z,18.20
2019-01-12T07:39:05.500Z,16.73
2019-01-12T07:41:36.409Z,20.63
2019-01-12T07:44:17.710Z,19.77
2019-01-12T07:47:08.729Z,15.37
2019-01-12T07:50:01.993Z,19.97
2019-01-12T07:52:35.036Z,19.80
2019-01-12T07:55:12.963Z,24.53
2019-01-12T13:59:29.478Z,38.53
2019-01-12T14:32:08.837Z,62.60
2019-01-12T14:35:38.915Z,50.33
2019-01-12T14:50:06.259Z,51.57
2019-01-12T15:12:30.932Z,45.80
2019-01-12T19:10:07.281Z,7.63
2019-01-12T19:13:11.626Z,11.07
2019-01-12T19:19:40.922Z,11.10
2019-01-12T19:22:59.053Z,16.10
2019-01-12T19:28:48.772Z,7.67
2019-01-12T19:31:19.899Z,11.13
2019-01-12T19:34:02.146Z,10.00
2019-01-12T19:36:32.788Z,12.97
2019-01-12T19:39:37.337Z,10.83
2019-01-12T19:42:38.556Z,14.50
2019-01-12T19:48:21.230Z,14.07
2019-01-12T19:50:54.407Z,11.30
2019-01-12T19:53:25.358Z,12.57
2019-01-12T19:55:55.931Z,10.80
2019-01-12T19:58:26.129Z,11.00
2019-01-12T20:00:56.572Z,10.73
2019-01-12T20:03:27.823Z,11.10
2019-01-12T20:05:57.523Z,8.47
2019-01-12T20:08:28.072Z,7.60
2019-01-12T20:10:58.498Z,10.70
2019-01-12T20:13:28.899Z,9.50
2019-01-12T20:16:47.718Z,8.13
2019-01-12T20:19:42.784Z,7.87
2019-01-12T20:22:15.339Z,9.87
2019-01-12T20:24:45.157Z,11.33
2019-01-12T20:27:15.591Z,7.97
2019-01-12T20:29:45.315Z,8.63
2019-01-12T20:32:46.170Z,16.03
2019-01-12T20:35:35.215Z,8.83
2019-01-12T20:38:40.127Z,8.77
2019-01-12T20:41:46.915Z,8.57
2019-01-12T20:44:50.099Z,6.83
2019-01-12T20:47:59.025Z,9.37
2019-01-12T20:51:07.800Z,10.77
2019-01-12T20:54:18.508Z,5.80
2019-01-12T20:57:29.075Z,5.97
2019-01-12T21:00:46.472Z,5.50
2019-01-12T21:04:07.676Z,14.93
2019-01-12T21:06:47.383Z,7.93
2019-01-12T21:09:46.399Z,8.93
2019-01-12T21:13:08.200Z,10.97
2019-01-12T21:16:00.038Z,11.63
2019-01-12T21:18:30.709Z,10.33
2019-01-12T21:21:01.315Z,8.10
2019-01-12T21:23:31.703Z,10.70
2019-01-12T21:26:02.040Z,8.03
2019-01-12T21:28:33.764Z,8.20
2019-01-12T21:31:04.100Z,6.70
2019-01-12T21:33:34.467Z,7.40
2019-01-12T21:36:05.439Z,6.77
2019-01-12T21:38:36.911Z,8.57
2019-01-12T21:41:07.292Z,8.33
2019-01-12T21:43:37.671Z,10.20
2019-01-12T21:46:08.037Z,11.30
2019-01-12T21:48:38.376Z,11.00
2019-01-12T21:51:08.729Z,10.20
2019-01-12T21:53:39.063Z,11.37
2019-01-12T21:56:09.427Z,7.60
2019-01-12T21:58:39.760Z,6.50
2019-01-12T22:01:10.196Z,6.33
2019-01-12T22:03:40.520Z,8.50
2019-01-12T22:06:10.884Z,6.80
2019-01-12T22:08:41.207Z,9.30
2019-01-12T22:11:11.547Z,11.50
2019-01-12T22:13:41.875Z,12.07
2019-01-12T22:16:12.207Z,5.03
2019-01-12T22:18:42.579Z,4.93
2019-01-12T22:21:12.271Z,6.57
2019-01-12T22:23:42.547Z,10.37
2019-01-12T22:26:12.880Z,6.37
2019-01-12T22:28:43.243Z,7.67
2019-01-12T22:31:13.588Z,9.00
2019-01-12T22:33:43.955Z,8.23
2019-01-12T22:36:14.322Z,13.80
2019-01-12T22:38:44.764Z,8.70
2019-01-12T22:41:15.135Z,9.03
2019-01-12T22:43:45.467Z,8.90
2019-01-12T22:46:15.831Z,12.63
2019-01-12T22:48:46.171Z,13.90
2019-01-12T22:51:16.545Z,15.63
2019-01-12T22:53:46.880Z,14.33
2019-01-12T22:56:17.219Z,15.27
2019-01-12T22:58:47.560Z,15.70
2019-01-12T23:01:44.400Z,13.23
2019-01-12T23:04:14.831Z,15.77
2019-01-12T23:06:45.075Z,15.50
2019-01-12T23:09:15.414Z,14.37
2019-01-12T23:15:15.029Z,12.60
2019-01-12T23:17:47.037Z,13.60
2019-01-12T23:20:17.499Z,15.07
2019-01-12T23:22:47.827Z,16.90
2019-01-12T23:25:22.761Z,15.03
2019-01-12T23:28:34.347Z,23.20
2019-01-12T23:33:35.764Z,23.40
2019-01-12T23:36:06.406Z,15.63
2019-01-12T23:38:36.791Z,17.60
2019-01-12T23:41:07.172Z,20.30
2019-01-12T23:43:37.543Z,15.00
2019-01-12T23:46:07.915Z,15.30
2019-01-12T23:48:38.292Z,17.93
2019-01-12T23:51:08.379Z,19.37
2019-01-12T23:53:38.664Z,31.73
2019-01-12T23:56:08.360Z,18.77
2019-01-12T23:58:38.615Z,16.73
